Time;durP1;ratioP1;P1;durP2;ratioP2;P2;SDS_P1;SDS_P2;PMS_P1;PMS_P2;Temp;Humidity;BMP_temperature;BMP_pressure;BME280_temperature;BME280_humidity;BME280_pressure;Samples;Min_cycle;Max_cycle;Signal;HPM_P1;HPM_P2
2023/05/15 00:10:50;;;;;;;9.57;7.68;;;;;;;13.27;71.34;99681.28;30737692;28;96599;-72
2023/05/15 00:25:51;;;;;;;9.80;7.70;;;;;;;13.20;71.69;99651.00;30737112;28;110492;-71
2023/05/15 00:40:53;;;;;;;11.93;8.80;;;;;;;13.15;72.39;99632.88;30736220;28;97013;-70
2023/05/15 00:55:58;;;;;;;13.17;9.93;;;;;;;13.11;72.93;99599.56;30734109;28;97663;-73
2023/05/15 01:11:01;;;;;;;11.13;9.63;;;;;;;13.02;73.31;99579.38;30747883;28;97185;-69
2023/05/15 01:26:17;;;;;;;10.97;8.60;;;;;;;12.90;73.41;99576.44;30753738;28;97608;-68
2023/05/15 01:41:45;;;;;;;11.90;9.13;;;;;;;12.68;73.62;99567.72;30751905;28;97505;-70
2023/05/15 01:56:46;;;;;;;12.50;9.20;;;;;;;12.66;74.44;99538.53;30751061;28;96994;-69
2023/05/15 02:11:47;;;;;;;11.70;7.55;;;;;;;12.74;75.20;99512.66;30748569;28;96699;-68
2023/05/15 02:27:03;;;;;;;7.73;6.07;;;;;;;12.65;75.04;99494.13;30747955;28;96716;-73
2023/05/15 02:42:05;;;;;;;9.63;5.93;;;;;;;12.64;75.42;99457.75;30746630;28;96750;-73
2023/05/15 02:57:06;;;;;;;7.53;5.43;;;;;;;12.54;75.92;99427.91;30759912;28;96743;-70
2023/05/15 03:12:09;;;;;;;10.17;5.93;;;;;;;12.52;75.96;99408.59;30742127;28;96763;-70
2023/05/15 03:27:09;;;;;;;7.33;5.40;;;;;;;12.55;76.04;99392.16;30740502;28;97541;-69
2023/05/15 03:42:09;;;;;;;8.60;6.18;;;;;;;12.55;76.42;99364.63;30738478;28;101235;-71
2023/05/15 03:57:10;;;;;;;7.50;5.18;;;;;;;12.56;76.47;99360.94;30738779;28;106913;-66
2023/05/15 04:12:10;;;;;;;7.80;5.45;;;;;;;12.55;76.77;99359.28;30735792;28;96729;-66
2023/05/15 04:27:10;;;;;;;7.70;5.13;;;;;;;12.56;76.83;99345.75;30733562;28;109893;-67
2023/05/15 04:42:11;;;;;;;7.22;5.53;;;;;;;12.67;77.00;99337.09;30731703;28;97730;-68
2023/05/15 04:57:11;;;;;;;8.48;6.53;;;;;;;12.83;76.87;99325.16;30730959;28;110794;-66
2023/05/15 05:12:11;;;;;;;8.48;6.35;;;;;;;12.93;76.76;99315.91;30729056;28;107210;-66
2023/05/15 05:27:12;;;;;;;10.35;6.90;;;;;;;12.95;76.79;99289.81;30730124;28;97138;-67
2023/05/15 05:42:12;;;;;;;7.28;5.93;;;;;;;13.09;76.74;99286.06;30727556;28;97498;-65
2023/05/15 05:57:13;;;;;;;7.95;6.97;;;;;;;13.36;76.85;99262.78;30740189;28;97385;-73
2023/05/15 06:12:13;;;;;;;8.60;6.38;;;;;;;13.62;76.59;99239.63;30744083;28;99744;-66
2023/05/15 06:27:14;;;;;;;8.82;6.47;;;;;;;13.96;76.30;99224.19;30745056;28;97075;-71
2023/05/15 06:42:14;;;;;;;8.60;6.30;;;;;;;14.24;75.67;99228.31;30744220;28;96978;-73
2023/05/15 06:57:14;;;;;;;7.57;5.97;;;;;;;14.35;74.94;99216.06;30744979;28;96659;-74
2023/05/15 07:12:15;;;;;;;7.35;5.53;;;;;;;14.31;74.76;99213.03;30754150;28;102068;-75
2023/05/15 07:27:15;;;;;;;8.90;5.45;;;;;;;14.47;73.86;99192.88;30737639;28;102197;-72
2023/05/15 07:42:16;;;;;;;6.40;5.10;;;;;;;15.09;73.83;99197.47;30737104;28;98052;-72
2023/05/15 07:57:16;;;;;;;6.43;5.28;;;;;;;15.25;73.03;99187.16;30735187;28;97238;-71
2023/05/15 08:12:19;;;;;;;5.22;4.13;;;;;;;15.52;71.56;99191.13;30733131;28;96785;-73
2023/05/15 08:27:24;;;;;;;10.90;8.77;;;;;;;15.40;71.79;99188.41;30733233;28;98574;-76
2023/05/15 08:42:55;;;;;;;7.30;5.73;;;;;;;15.46;71.17;99180.47;30731296;28;96784;-73
2023/05/15 08:57:55;;;;;;;7.30;5.73;;;;;;;15.28;69.89;99179.50;30728609;28;96837;-71
2023/05/15 09:12:57;;;;;;;8.77;6.55;;;;;;;14.95;70.86;99185.22;30726741;28;97226;-73
2023/05/15 09:27:58;;;;;;;9.07;7.07;;;;;;;15.13;71.47;99173.66;30736200;28;97479;-75
2023/05/15 09:42:59;;;;;;;8.88;7.20;;;;;;;14.98;71.70;99168.69;30749036;28;96671;-75
2023/05/15 09:58:14;;;;;;;11.10;6.90;;;;;;;16.05;70.90;99175.34;30748635;28;96747;-71
2023/05/15 10:13:14;;;;;;;7.97;6.50;;;;;;;16.13;69.34;99179.53;30746251;28;96686;-74
2023/05/15 10:28:17;;;;;;;8.00;6.25;;;;;;;18.86;67.97;99166.66;30744989;28;97578;-75
2023/05/15 10:43:19;;;;;;;5.90;4.90;;;;;;;18.97;61.62;99173.00;30742968;28;96737;-72
2023/05/15 10:58:23;;;;;;;5.77;4.10;;;;;;;17.90;61.45;99187.25;30743325;28;96665;-67
2023/05/15 11:13:23;;;;;;;5.87;4.30;;;;;;;17.83;62.10;99170.44;30742017;28;97060;-71
2023/05/15 11:28:24;;;;;;;5.75;4.07;;;;;;;20.43;58.79;99150.63;30739712;28;97705;-76
2023/05/15 11:43:25;;;;;;;;;;;;;;;19.89;56.13;99129.19;30738782;28;96706;-74
2023/05/15 11:58:26;;;;;;;3.67;3.10;;;;;;;17.65;55.74;99146.44;30736266;28;97438;-74
2023/05/15 12:13:26;;;;;;;3.60;2.92;;;;;;;17.48;57.78;99136.44;30733945;28;99174;-72
2023/05/15 12:28:28;;;;;;;3.78;3.10;;;;;;;19.32;54.11;99122.41;30733195;28;97468;-74
2023/05/15 12:43:30;;;;;;;3.73;2.57;;;;;;;19.84;52.92;99116.44;30747904;28;96798;-71
2023/05/15 12:58:31;;;;;;;3.83;2.30;;;;;;;18.82;52.06;99132.31;30738536;28;96881;-70
2023/05/15 13:13:41;;;;;;;3.45;2.35;;;;;;;17.69;54.76;99120.66;30770091;28;96630;-73
2023/05/15 13:28:41;;;;;;;3.70;2.63;;;;;;;16.82;55.80;99144.81;30770200;28;96589;-75
2023/05/15 13:43:42;;;;;;;4.82;2.40;;;;;;;15.74;59.85;99139.59;30766242;28;106309;-72
2023/05/15 13:58:42;;;;;;;3.78;2.83;;;;;;;15.99;60.67;99150.22;30765459;28;97514;-71
2023/05/15 14:13:42;;;;;;;3.55;3.08;;;;;;;15.69;61.91;99161.78;30756223;28;96856;-74
2023/05/15 14:28:43;;;;;;;4.35;3.40;;;;;;;15.15;64.01;99180.44;30744734;28;96656;-70
2023/05/15 14:43:43;;;;;;;4.00;3.00;;;;;;;14.63;66.09;99193.41;30741599;28;104343;-71
2023/05/15 14:58:44;;;;;;;4.43;2.60;;;;;;;14.30;66.82;99186.47;30741575;28;106945;-73
2023/05/15 15:13:44;;;;;;;4.00;2.87;;;;;;;14.47;67.10;99184.84;30741564;28;97226;-70
2023/05/15 15:28:45;;;;;;;8.13;4.55;;;;;;;14.56;68.08;99191.56;30738088;28;97301;-74
2023/05/15 15:43:45;;;;;;;7.03;4.95;;;;;;;14.97;67.97;99189.34;30737117;28;99241;-71
2023/05/15 15:58:45;;;;;;;7.63;5.97;;;;;;;14.72;67.98;99200.09;30736946;28;97543;-72
2023/05/15 16:13:46;;;;;;;8.38;5.72;;;;;;;14.74;68.28;99192.66;30735605;28;97717;-74
2023/05/15 16:28:46;;;;;;;7.00;5.50;;;;;;;15.47;67.55;99190.16;30732056;28;105540;-75
2023/05/15 16:43:48;;;;;;;7.40;6.40;;;;;;;15.38;65.52;99198.53;30730690;28;96874;-72
2023/05/15 16:58:49;;;;;;;9.10;7.00;;;;;;;14.76;66.45;99225.41;30728559;28;97510;-72
2023/05/15 17:13:50;;;;;;;10.93;7.60;;;;;;;14.30;67.11;99232.81;30727524;28;96632;-72
2023/05/15 17:28:50;;;;;;;10.00;6.85;;;;;;;13.79;68.25;99239.97;30727223;28;106765;-75
2023/05/15 17:43:50;;;;;;;11.00;7.38;;;;;;;13.79;68.92;99229.25;30728842;28;97197;-73
2023/05/15 17:58:51;;;;;;;9.73;8.20;;;;;;;13.77;69.54;99271.47;30748888;28;96748;-74
2023/05/15 18:13:51;;;;;;;10.35;8.75;;;;;;;13.73;70.08;99291.66;30747851;28;96795;-71
2023/05/15 18:28:52;;;;;;;10.45;8.13;;;;;;;13.39;70.71;99300.84;30745384;28;96645;-71
2023/05/15 18:43:52;;;;;;;11.85;8.95;;;;;;;12.85;72.04;99317.78;30742731;28;96800;-67
2023/05/15 18:58:53;;;;;;;10.93;9.70;;;;;;;12.56;73.00;99335.06;30739886;28;105122;-71
2023/05/15 19:13:53;;;;;;;10.70;9.48;;;;;;;12.13;73.73;99373.56;30740410;28;98642;-66
2023/05/15 19:28:54;;;;;;;13.65;10.25;;;;;;;11.82;74.57;99382.03;30739906;28;96622;-71
2023/05/15 19:43:54;;;;;;;10.13;8.48;;;;;;;11.58;75.06;99388.69;30740175;28;97362;-70
2023/05/15 19:58:55;;;;;;;14.05;9.00;;;;;;;11.38;75.54;99365.38;30738224;28;96583;-73
2023/05/15 20:13:55;;;;;;;11.95;10.55;;;;;;;11.37;75.50;99379.72;30736245;28;96906;-74
2023/05/15 20:28:55;;;;;;;14.73;10.90;;;;;;;11.14;75.94;99394.13;30735500;28;112590;-75
2023/05/15 20:43:55;;;;;;;16.45;10.23;;;;;;;10.84;76.75;99401.47;30736194;28;96850;-74
2023/05/15 20:58:56;;;;;;;12.35;9.75;;;;;;;10.58;76.47;99399.38;30733796;28;112375;-68
2023/05/15 21:13:56;;;;;;;12.60;9.75;;;;;;;10.23;77.20;99394.69;30733276;28;97272;-70
2023/05/15 21:28:58;;;;;;;12.05;9.23;;;;;;;10.09;77.08;99401.69;30749794;28;106363;-71
2023/05/15 21:43:58;;;;;;;15.17;9.50;;;;;;;9.97;77.29;99409.31;30753838;28;97482;-75
2023/05/15 21:58:58;;;;;;;10.68;8.43;;;;;;;9.83;77.13;99413.66;30751261;28;112914;-75
2023/05/15 22:13:58;;;;;;;13.98;9.23;;;;;;;9.74;77.56;99440.53;30749727;28;113022;-75
2023/05/15 22:28:59;;;;;;;11.27;8.77;;;;;;;9.59;77.83;99440.50;30748064;28;97557;-75
2023/05/15 22:44:01;;;;;;;12.65;9.60;;;;;;;9.38;77.82;99446.56;30747801;28;96726;-75
2023/05/15 22:59:01;;;;;;;12.20;8.63;;;;;;;9.17;78.25;99448.03;30744465;28;96663;-75
2023/05/15 23:14:02;;;;;;;12.93;9.77;;;;;;;9.07;78.48;99455.44;30743912;28;113431;-75
2023/05/15 23:29:02;;;;;;;18.20;11.20;;;;;;;8.97;78.80;99458.34;30743129;28;96657;-73
2023/05/15 23:44:03;;;;;;;13.10;11.15;;;;;;;9.15;80.01;99474.78;30740574;28;96866;-69
2023/05/15 23:59:03;;;;;;;14.52;11.25;;;;;;;9.33;79.91;99478.97;30739730;28;96733;-75
